Nearby METAR Reports

 

KBAX - Bad Axe, Michigan, USA
Distance from station: ESE 22mi, 35km
Updated: Tue, 21-Jan-2020 1:36am EST
Overcast
Overcast
 Wind from WSW
Wind: WSW 3 mph , 6 km/h
Temperature: 21°F , -6°C
Dew Point: 14°F , -10°C
Humidity: 74%
Barometer: 30.51 inHg , 1033.2 hPa
Clouds: Overcast
Visibility: 10 miles , 16 km
Cloud details: Overcast 3000 ft
2020/01/21 06:36 KBAX 210636Z AUTO 25003KT 10SM OVC030 M06/M10 A3051 RMK AO2 T10601097
KFNT - Flint, Michigan, USA
Distance from station: SSW 68mi, 109km
Updated: Tue, 21-Jan-2020 12:53am EST
Overcast
Overcast
 Wind from W
Wind: W 5 mph , 7 km/h
Temperature: 16°F , -9°C
Wind Chill: 8°F , -13°C
Dew Point: 10°F , -12°C
Humidity: 79%
Barometer: 30.54 inHg , 1034.2 hPa
Clouds: Overcast
Visibility: 10 miles , 16 km
Cloud details: Overcast 3100 ft
2020/01/21 05:53 KFNT 210553Z 28004KT 10SM OVC031 M09/M12 A3054 RMK AO2 SLP358 I1000 I6000 T10891117 11056 21133 53002
KMBS - Saginaw, Michigan, USA
Distance from station: SW 44mi, 70km
Updated: Tue, 21-Jan-2020 12:53am EST
Overcast
Overcast
 Wind from NW
Wind: NW 7 mph , 11 km/h
Temperature: 21°F , -6°C
Wind Chill: 12°F , -11°C
Dew Point: 10°F , -12°C
Humidity: 63%
Barometer: 30.57 inHg , 1035.2 hPa
Clouds: Overcast
Visibility: 10 miles , 16 km
Cloud details: Overcast 2900 ft
2020/01/21 05:53 KMBS 210553Z 31006KT 10SM OVC029 M06/M12 A3057 RMK AO2 SLP362 T10611122 11056 21072 51005
 
KDTW - Detroit/Wayne, Michigan, USA
Distance from station: SSE 117mi, 188km
Updated: Tue, 21-Jan-2020 12:53am EST
Overcast
Overcast
 Wind from calm
Wind: Calm
Temperature: 21°F , -6°C
Dew Point: 12°F , -11°C
Humidity: 68%
Barometer: 30.56 inHg , 1034.9 hPa
Clouds: Overcast
Visibility: 10 miles , 16 km
Cloud details: Overcast 3400 ft
2020/01/21 05:53 KDTW 210553Z 00000KT 10SM OVC034 M06/M11 A3056 RMK AO2 SLP359 60000 T10611106 11061 21078 58002 $
KP58 - Port Hope, Michigan, USA
Distance from station: ENE 30mi, 48km
Updated: Tue, 21-Jan-2020 1:51am EST

 Wind from NW
Wind: NW 12 mph , 19 km/h
Temperature: 25°F , -4°C
Wind Chill: 14°F , -10°C
Dew Point: 12°F , -11°C
Humidity: 59%
Barometer: 30.49 inHg , 1032.5 hPa
2020/01/21 06:51 KP58 210651Z AUTO 31010KT M04/M11 A3049 RMK AO1 SLP342 T10391106
KCFS - Caro/Tuscola, Michigan, USA
Distance from station: S 31mi, 50km
Updated: Tue, 21-Jan-2020 1:35am EST
Overcast
Overcast
 Wind from NW
Wind: NW 8 mph , 13 km/h
Temperature: 25°F , -4°C
Wind Chill: 16°F , -9°C
Dew Point: 14°F , -10°C
Humidity: 63%
Barometer: 30.53 inHg , 1033.9 hPa
Clouds: Overcast
Visibility: 10 miles , 16 km
Cloud details: Overcast 2600 ft
2020/01/21 06:35 KCFS 210635Z AUTO 32007KT 10SM OVC026 M04/M10 A3053 RMK AO2 T10451105
 
KPHN - Port Huron, Michigan, USA
Distance from station: SSE 81mi, 131km
Updated: Tue, 21-Jan-2020 1:35am EST
Overcast
Overcast
 Wind from calm
Wind: Calm
Temperature: 21°F , -6°C
Dew Point: 12°F , -11°C
Humidity: 68%
Barometer: 30.54 inHg , 1034.2 hPa
Clouds: Overcast
Visibility: 10 miles , 16 km
Cloud details: Overcast 2800 ft
2020/01/21 06:35 KPHN 210635Z AUTO 00000KT 10SM OVC028 M06/M11 A3054 RMK AO2
KPTK - Pontiac, Michigan, USA
Distance from station: S 86mi, 138km
Updated: Tue, 21-Jan-2020 12:53am EST
Overcast
Overcast
 Wind from WNW
Wind: WNW 3 mph , 6 km/h
Temperature: 16°F , -9°C
Dew Point: 10°F , -12°C
Humidity: 79%
Barometer: 30.52 inHg , 1033.5 hPa
Clouds: Overcast
Visibility: 10 miles , 16 km
Cloud details: Overcast 3100 ft
2020/01/21 05:53 KPTK 210553Z AUTO 29003KT 10SM OVC031 M09/M12 A3052 RMK AO2 SLP353 T10941117 11061 21100 53001 $
KMTC - Selfridge Angb, Michigan, USA
Distance from station: SSE 94mi, 151km
Updated: Tue, 21-Jan-2020 12:56am EST
Overcast
Overcast
 Wind from WNW
Wind: WNW 3 mph , 6 km/h
Temperature: 21°F , -6°C
Dew Point: 14°F , -10°C
Humidity: 74%
Barometer: 30.54 inHg , 1034.2 hPa
Clouds: Overcast
Visibility: 10 miles , 16 km
Cloud details: Overcast 3200 ft
2020/01/21 05:56 KMTC 210556Z AUTO 30003KT 10SM OVC032 M06/M10 A3054 RMK AO2 SLP357 T10561104 11056 21070 55000 $